Bledso, Texas
Current Conditions -  °F | °C
As of 11:58 AM on Friday 24 Oct 2014 (Local Time) from KCVS Reporting Station
Clear Clear  
Wind Chill: 70°   Ceiling: Unl
Heat Index: 70°   Visibility: 10mi
Dew Point: 43°   Wind: 9mph
Humidity: 37%   Direction: 280°W
Pressure: 30.22"   Gusts: NA
Location:  33.6301°N, 103.023°W
Report Text: KCVS 241658Z AUTO 28008KT 10SM CLR 21/06 A3022 RMK AO2 SLP187 T02130060 $
Loading
Personal Weather Stations






























Interactive Weather Map
Tropical Storm Tracking
New forecast layout! Learn more

10-Day Weather Forecast

Advertisements
Track Severe Weather on mobile